Latest Weather Observations for St Lawrence

IDQ60801

Issued at 8:42 pm EST Saturday 22 February 2020 (issued every 10 minutes, with the page automatically refreshed every 10 minutes)

About weather observations | Map of weather stations | Latest weather observations for QLD | Other Formats
Station Details ID: 033210 Name: ST LAWRENCE Lat: -22.35 Lon: 149.52 Height: 9.19 m
Data from the previous 72 hours. | See also: Recent months at St Lawrence
Date/Time
EST
Temp
°C
App
Temp
°C
Dew
Point
°C
Rel
Hum
%
Delta-T
°C
Wind Press
QNH
hPa
Press
MSL
hPa
Rain since
9am
mm
Dir  Spd
km/h
Gust
km/h
Spd
kts
Gust
kts
22/08:30pm 25.5 27.5 22.2 82 2.2 E 15 26 8 14 1014.0 1013.9 6.8
22/08:00pm 25.7 27.9 23.2 86 1.7 NE 17 28 9 15 1013.8 1013.7 6.6
22/07:30pm 25.5 28.7 23.0 86 1.7 ENE 11 20 6 11 1013.4 1013.3 6.6
22/07:00pm 25.4 29.3 22.9 86 1.7 ENE 7 9 4 5 1013.2 1013.1 6.2
22/06:30pm 24.9 29.6 22.0 84 1.9 CALM 0 4 0 2 1012.9 1012.8 5.6
22/06:00pm 24.7 26.5 21.2 81 2.3 E 13 19 7 10 1012.6 1012.5 5.4
22/05:30pm 25.3 27.0 22.4 84 1.9 ENE 17 26 9 14 1012.7 1012.6 5.2
22/05:00pm 26.8 28.4 22.2 76 3.1 ENE 17 24 9 13 1012.3 1012.2 5.2
22/04:30pm 27.1 27.1 20.9 69 4.1 NE 22 33 12 18 1012.0 1011.9 5.2
22/04:00pm 27.9 29.3 21.9 70 4.0 E 17 32 9 17 1011.6 1011.5 5.2
22/03:30pm 28.0 28.6 21.3 67 4.5 ENE 20 32 11 17 1011.7 1011.6 5.2
22/03:00pm 28.4 29.3 21.9 68 4.4 ESE 20 33 11 18 1011.9 1011.8 5.2
22/02:30pm 28.6 30.0 22.8 71 3.9 E 20 35 11 19 1012.3 1012.2 5.2
22/02:00pm 28.3 30.0 23.0 73 3.6 ENE 19 30 10 16 1012.4 1012.3 5.2
22/01:30pm 26.9 30.5 24.4 86 1.7 NE 13 24 7 13 1012.7 1012.6 5.2
22/01:00pm 27.4 31.2 23.4 79 2.7 NW 9 15 5 8 1012.8 1012.7 0.0
22/12:30pm 29.3 32.5 23.7 72 3.9 NNE 13 19 7 10 1013.4 1013.3 0.0
22/12:00pm 28.4 31.7 23.8 76 3.2 N 13 19 7 10 1014.0 1013.9 0.0
22/11:30am 28.1 32.0 24.3 80 2.6 N 11 19 6 10 1014.3 1014.2 0.0
22/11:00am 28.5 30.5 22.3 69 4.2 NE 15 22 8 12 1014.3 1014.2 0.0
22/10:30am 28.2 30.1 22.0 69 4.2 E 15 26 8 14 1014.4 1014.3 0.0
22/10:00am 28.4 30.8 22.9 72 3.7 ESE 15 24 8 13 1014.3 1014.2 0.0
22/09:30am 27.7 29.3 22.9 75 3.3 SE 19 30 10 16 1014.3 1014.2 0.0
22/09:00am 28.5 31.8 23.9 76 3.2 SSE 13 17 7 9 1014.1 1014.0 0.6
22/08:30am 27.8 31.1 23.8 79 2.8 SSE 13 17 7 9 1013.9 1013.8 0.6
22/08:00am 27.2 30.5 23.9 82 2.3 SSE 13 20 7 11 1013.3 1013.2 0.6
22/07:30am 26.7 30.2 23.6 83 2.1 S 11 17 6 9 1013.1 1013.0 0.6
22/07:00am 26.0 29.2 23.1 84 2.0 S 11 17 6 9 1012.7 1012.6 0.6
22/06:30am 25.5 29.1 23.0 86 1.7 SSE 9 13 5 7 1012.1 1012.0 0.6
22/06:00am 24.8 28.9 22.3 86 1.7 W 4 7 2 4 1012.1 1012.0 0.6
22/05:30am 25.0 28.2 22.3 85 1.8 S 9 13 5 7 1011.9 1011.8 0.6
22/05:00am 25.0 29.0 22.1 84 1.9 SSW 4 9 2 5 1011.8 1011.7 0.6
22/04:30am 25.2 29.1 21.1 78 2.7 N 2 9 1 5 1011.7 1011.6 0.6
22/04:00am 24.8 25.2 20.7 78 2.7 NE 19 32 10 17 1011.8 1011.7 0.6
22/03:30am 28.2 32.2 23.1 74 3.5 ESE 7 9 4 5 1011.0 1010.9 0.0
22/03:00am 28.6 33.5 23.1 72 3.8 ENE 2 7 1 4 1011.1 1011.0 0.0
22/02:30am 28.9 32.5 23.1 71 4.0 NE 9 13 5 7 1011.2 1011.1 0.0
22/02:00am 29.0 32.7 23.2 71 4.0 NE 9 15 5 8 1011.4 1011.3 0.0
22/01:30am 29.0 33.1 23.9 74 3.5 ENE 9 13 5 7 1011.5 1011.4 0.0
22/01:00am 29.2 32.2 23.4 71 4.0 NE 13 17 7 9 1011.8 1011.7 0.0
22/12:30am 29.0 32.6 23.7 73 3.7 NE 11 17 6 9 1011.8 1011.7 0.0
22/12:00am 29.2 33.3 23.9 73 3.7 NE 9 19 5 10 1012.0 1011.9 0.0
 
Date/Time
EST
Temp
°C
App
Temp
°C
Dew
Point
°C
Rel
Hum
%
Delta-T
°C
Wind Press
QNH
hPa
Press
MSL
hPa
Rain since
9am
mm
Dir  Spd
km/h
Gust
km/h
Spd
kts
Gust
kts
21/11:30pm 29.2 32.0 23.6 72 3.9 NNE 15 22 8 12 1011.8 1011.7 0.0
21/11:00pm 29.0 32.0 23.4 72 3.8 NNE 13 20 7 11 1012.2 1012.1 0.0
21/10:30pm 28.9 32.2 23.8 74 3.5 NNE 13 20 7 11 1012.5 1012.4 0.0
21/10:00pm 29.0 32.6 23.7 73 3.7 NE 11 17 6 9 1012.4 1012.3 0.0
21/09:30pm 29.1 32.6 23.5 72 3.9 NE 11 17 6 9 1012.5 1012.4 0.0
21/09:00pm 29.2 33.1 23.6 72 3.9 ENE 9 17 5 9 1012.2 1012.1 0.0
21/08:30pm 29.2 32.6 23.4 71 4.0 ENE 11 17 6 9 1011.9 1011.8 0.0
21/08:00pm 29.4 32.8 23.4 70 4.1 ENE 11 19 6 10 1011.5 1011.4 0.0
21/07:30pm 29.4 32.3 23.1 69 4.3 NNE 13 17 7 9 1011.1 1011.0 0.0
21/07:00pm 29.5 31.9 23.0 68 4.5 NNE 15 22 8 12 1010.1 1010.0 0.0
21/06:30pm 29.8 32.0 23.3 68 4.5 NNE 17 26 9 14 1009.5 1009.4 0.0
21/06:00pm 30.2 32.1 23.4 67 4.7 NNE 19 26 10 14 1009.4 1009.3 0.0
21/05:30pm 30.4 31.9 23.1 65 5.0 N 20 28 11 15 1009.2 1009.1 0.0
21/05:00pm 31.0 32.6 22.9 62 5.6 NNE 19 26 10 14 1009.0 1008.9 0.0
21/04:30pm 31.7 33.5 23.5 62 5.7 NNE 20 26 11 14 1008.7 1008.6 0.0
21/04:00pm 31.7 32.8 22.4 58 6.4 N 20 28 11 15 1008.4 1008.3 0.0
21/03:30pm 32.9 34.0 22.4 54 7.2 N 20 32 11 17 1008.5 1008.4 0.0
21/03:00pm 32.6 34.4 23.3 58 6.4 NNE 19 28 10 15 1008.9 1008.8 0.0
21/02:30pm 32.8 34.1 22.3 54 7.2 NNE 19 30 10 16 1009.2 1009.1 0.0
21/02:00pm 33.0 34.6 23.3 56 6.7 NNE 20 28 11 15 1009.5 1009.4 0.0
21/01:30pm 33.2 35.7 24.4 60 6.2 NNE 19 24 10 13 1010.1 1010.0 0.0
21/01:00pm 32.9 35.2 23.5 57 6.5 N 17 24 9 13 1010.4 1010.3 0.0
21/12:30pm 32.6 34.9 23.5 58 6.3 NNE 17 24 9 13 1010.8 1010.7 0.0
21/12:00pm 32.2 34.5 23.4 59 6.1 NNE 17 24 9 13 1011.0 1010.9 0.0
21/11:30am 32.1 34.0 22.8 58 6.4 N 17 22 9 12 1011.0 1010.9 0.0
21/11:00am 31.5 34.2 24.1 65 5.2 N 17 22 9 12 1011.1 1011.0 0.0
21/10:30am 31.4 34.7 23.8 64 5.3 NE 13 20 7 11 1011.1 1011.0 0.0
21/10:00am 31.6 34.4 23.7 63 5.5 NNE 15 20 8 11 1011.3 1011.2 0.0
21/09:30am 30.9 34.3 24.1 67 4.7 NNE 13 19 7 10 1011.2 1011.1 0.0
21/09:00am 30.0 33.8 23.4 67 4.5 NNE 9 13 5 7 1011.1 1011.0 0.0
21/08:30am 30.2 36.7 25.0 73 3.7 CALM 0 0 0 0 1010.8 1010.7 0.0
21/08:00am 29.5 35.6 24.4 74 3.6 CALM 0 6 0 3 1010.8 1010.7 0.0
21/07:30am 28.0 33.1 25.0 84 2.1 S 7 9 4 5 1010.5 1010.4 0.0
21/07:00am 27.3 33.9 25.3 89 1.4 CALM 0 0 0 0 1010.3 1010.2 0.0
21/06:30am 26.1 32.0 24.1 89 1.4 CALM 0 0 0 0 1009.8 1009.7 0.0
21/06:00am 25.6 31.3 23.7 89 1.3 CALM 0 0 0 0 1009.6 1009.5 0.0
21/05:30am 25.7 31.3 23.6 88 1.4 CALM 0 0 0 0 1009.2 1009.1 0.0
21/05:00am 25.8 31.5 23.8 89 1.4 CALM 0 0 0 0 1008.9 1008.8 0.0
21/04:30am 25.9 31.7 23.9 89 1.4 CALM 0 0 0 0 1008.4 1008.3 0.0
21/04:00am 26.1 31.8 23.8 87 1.6 CALM 0 0 0 0 1008.5 1008.4 0.0
21/03:30am 26.3 31.9 23.6 85 1.8 CALM 0 0 0 0 1008.3 1008.2 0.0
21/03:00am 26.7 32.4 23.8 84 2.0 CALM 0 0 0 0 1008.3 1008.2 0.0
21/02:30am 26.7 32.4 23.8 84 2.0 CALM 0 0 0 0 1008.3 1008.2 0.0
21/02:00am 26.9 32.7 24.0 84 2.0 CALM 0 0 0 0 1008.3 1008.2 0.0
21/01:30am 27.0 32.8 23.9 83 2.1 CALM 0 0 0 0 1008.6 1008.5 0.0
21/01:00am 27.4 33.1 23.8 81 2.5 CALM 0 0 0 0 1008.7 1008.6 0.0
21/12:30am 27.7 33.4 23.7 79 2.7 CALM 0 0 0 0 1008.9 1008.8 0.0
21/12:00am 27.9 33.6 23.7 78 2.9 CALM 0 0 0 0 1009.1 1009.0 0.0
 
Date/Time
EST
Temp
°C
App
Temp
°C
Dew
Point
°C
Rel
Hum
%
Delta-T
°C
Wind Press
QNH
hPa
Press
MSL
hPa
Rain since
9am
mm
Dir  Spd
km/h
Gust
km/h
Spd
kts
Gust
kts
20/11:30pm 28.5 32.9 23.4 74 3.5 N 6 9 3 5 1009.1 1009.0 0.0
20/11:00pm 28.7 32.9 23.4 73 3.6 N 7 11 4 6 1009.1 1009.0 0.0
20/10:30pm 28.4 34.1 23.8 76 3.2 CALM 0 0 0 0 1009.3 1009.2 0.0
20/10:00pm 29.0 34.8 23.9 74 3.5 CALM 0 0 0 0 1009.3 1009.2 0.0
20/09:30pm 29.2 33.6 23.4 71 4.0 NW 6 9 3 5 1009.2 1009.1 0.0
20/09:00pm 29.7 32.8 23.6 69 4.2 N 13 17 7 9 1008.9 1008.8 0.0
20/08:30pm 29.7 33.1 23.4 69 4.3 N 11 15 6 8 1008.9 1008.8 0.0
20/08:00pm 29.7 32.6 23.2 68 4.5 N 13 19 7 10 1007.9 1007.8 0.0
20/07:30pm 29.7 32.6 23.2 68 4.5 NNE 13 19 7 10 1006.9 1006.8 0.0
20/07:00pm 30.0 32.4 22.9 65 4.9 NNE 15 22 8 12 1006.7 1006.6 0.0
20/06:30pm 30.4 31.5 22.0 60 5.7 N 19 26 10 14 1006.8 1006.7 0.0
20/06:00pm 30.7 32.8 23.1 64 5.2 N 17 24 9 13 1006.0 1005.9 0.0
20/05:30pm 31.2 33.0 23.6 64 5.3 NNE 20 28 11 15 1005.5 1005.4 0.0
20/05:00pm 32.0 34.1 23.8 62 5.7 N 19 24 10 13 1004.8 1004.7 0.0
20/04:30pm 32.9 35.4 24.4 61 6.0 NNE 19 24 10 13 1004.8 1004.7 0.0
20/04:00pm 33.3 35.7 23.6 56 6.8 NNE 17 24 9 13 1004.9 1004.8 0.0
20/03:30pm 33.4 35.6 24.0 58 6.6 NNE 19 22 10 12 1005.3 1005.2 0.0
20/03:00pm 33.7 36.9 24.3 58 6.6 NE 15 24 8 13 1005.4 1005.3 0.0
20/02:30pm 34.3 36.7 23.6 53 7.5 NNE 17 24 9 13 1005.7 1005.6 0.0
20/02:00pm 33.6 36.4 23.6 56 7.0 NNE 15 20 8 11 1006.1 1006.0 0.0
20/01:30pm 34.1 37.2 23.5 54 7.4 NNE 13 19 7 10 1006.2 1006.1 0.0
20/01:00pm 33.3 35.9 23.9 58 6.6 N 17 24 9 13 1006.6 1006.5 0.0
20/12:30pm 33.1 36.1 23.4 56 6.7 N 13 20 7 11 1007.0 1006.9 0.0
20/12:00pm 32.6 36.2 23.8 59 6.1 N 11 17 6 9 1007.4 1007.3 0.0
20/11:30am 33.5 38.1 24.7 60 6.2 NNE 9 17 5 9 1007.6 1007.5 0.0
20/11:00am 32.9 36.8 23.0 56 6.8 N 7 13 4 7 1008.0 1007.9 0.0
20/10:30am 32.1 36.3 22.5 57 6.6 N 4 9 2 5 1008.3 1008.2 0.0
20/10:00am 31.9 36.2 23.7 62 5.7 NW 7 11 4 6 1008.5 1008.4 0.0
20/09:30am 31.4 35.8 23.8 64 5.3 NW 7 11 4 6 1008.5 1008.4 0.0
20/09:00am 30.6 35.2 23.8 67 4.7 NNW 6 11 3 6 1008.5 1008.4 0.2
20/08:30am 29.8 35.4 23.5 69 4.3 CALM 0 0 0 0 1008.4 1008.3 0.2
20/08:00am 28.9 33.5 23.8 74 3.5 SW 6 9 3 5 1008.2 1008.1 0.2
20/07:30am 27.5 33.2 23.7 80 2.6 CALM 0 0 0 0 1008.0 1007.9 0.2
20/07:00am 26.2 31.9 23.7 86 1.7 CALM 0 0 0 0 1007.6 1007.5 0.2
20/06:30am 25.4 31.1 23.8 91 1.1 CALM 0 0 0 0 1007.2 1007.1 0.2
20/06:00am 25.1 30.3 23.5 91 1.1 SSW 2 7 1 4 1006.8 1006.7 0.2
20/05:30am 25.3 31.0 23.7 91 1.1 CALM 0 0 0 0 1006.2 1006.1 0.2
20/05:00am 25.3 30.9 23.5 90 1.2 CALM 0 0 0 0 1005.9 1005.8 0.2
20/04:30am 25.5 31.2 23.7 90 1.2 CALM 0 0 0 0 1005.7 1005.6 0.2
20/04:00am 25.6 31.3 23.8 90 1.2 CALM 0 0 0 0 1005.6 1005.5 0.2
20/03:30am 25.8 31.1 23.7 88 1.4 SSE 2 6 1 3 1005.7 1005.6 0.2
20/03:00am 25.6 30.5 23.7 89 1.3 SW 4 13 2 7 1005.7 1005.6 0.2
20/02:30am 25.8 31.6 24.0 90 1.2 CALM 0 0 0 0 1005.6 1005.5 0.2
20/02:00am 26.0 31.8 23.9 88 1.4 CALM 0 0 0 0 1005.8 1005.7 0.2
20/01:30am 26.2 32.0 23.9 87 1.6 CALM 0 0 0 0 1006.1 1006.0 0.2
20/01:00am 26.2 31.8 23.5 85 1.8 CALM 0 0 0 0 1006.7 1006.6 0.2
20/12:30am 26.5 32.3 24.0 86 1.7 CALM 0 0 0 0 1007.0 1006.9 0.2
20/12:00am 27.0 32.3 24.3 85 1.9 WSW 4 7 2 4 1007.1 1007.0 0.2
 
Date/Time
EST
Temp
°C
App
Temp
°C
Dew
Point
°C
Rel
Hum
%
Delta-T
°C
Wind Press
QNH
hPa
Press
MSL
hPa
Rain since
9am
mm
Dir  Spd
km/h
Gust
km/h
Spd
kts
Gust
kts
19/11:30pm 27.1 32.9 24.0 83 2.1 CALM 0 0 0 0 1007.4 1007.3 0.2
19/11:00pm 27.3 31.7 23.5 80 2.6 WSW 6 7 3 4 1007.6 1007.5 0.2
19/10:30pm 28.6 32.8 23.5 74 3.5 N 7 11 4 6 1007.5 1007.4 0.2
19/10:00pm 28.8 32.5 23.2 71 3.8 N 9 15 5 8 1007.4 1007.3 0.2
19/09:30pm 29.0 32.4 23.4 72 3.8 N 11 15 6 8 1007.5 1007.4 0.2
19/09:00pm 29.0 32.8 23.4 72 3.9 N 9 13 5 7 1007.6 1007.5 0.2

Other formats

Comma delimited format used in spreadsheet applications
http://www.bom.gov.au/fwo/IDQ60801/IDQ60801.95369.axf

JavaScript Object Notation format (JSON) in row-major order
http://www.bom.gov.au/fwo/IDQ60801/IDQ60801.95369.json

Data quality

Most of these data are generated automatically and are frequently updated. Quality checks on data are not normally performed. It is possible for incorrect values to appear. Refer to information at About Latest Weather Observations and please check the disclaimer before using these data.